Nikos Kolias

Scout - Apollon
3 Dez 2028
Sonntag
Verarbeitung

Persönlichkeit

Anpassungsfähigkeit (9) Ehrgeiz (1) Kontroverse (10) Loyalität (1) Druck (17) Professionalität (9) Fairness (5) Temperament (11)

Profil

Trainerstil Demokratisch
Lizenz Kontinentale C
Entschlossenheit 4
Menschenführung 7
Motivation 11
Disziplin 5
Arbeitszufriedenheit
100%
Ermüdung
0%
Rolle Scout
Gehalt 51.4K p/W
Vertrag 14.03.2030

Leistung

Verhalten Gut
Trainingseffektivität
49%
Spielerentwicklung
35%
Verletzungsprävention
40%
Taktische Umsetzung
40%

Letzte Ereignisse

Nahm an einer Scouting-Besprechung teil jetzt
Empfahl ein Transferziel jetzt
Empfahl ein Transferziel jetzt
Sprach sich gegen ein Transferziel aus jetzt
Empfahl ein Transferziel jetzt
Empfahl ein Transferziel jetzt
Spiel beobachtet jetzt
Spiel beobachtet jetzt

Aktuell beobachtet

107
Spieler Verein Status Fähigkeit Vertrauen Beobachtet Zuletzt beobachtet Letzte Stimme
Gideon Manaseh Ikorodu City Aktiv 92 / 106 40% 5 02.12.2028 -
Andrija Bulatović Chamois Niortais Aktiv 144 / 144 40% 2 02.12.2028 -
Maxim Radchenko Rostov Aktiv 93 / 100 40% 1 27.11.2028 -
Joaquín Salas Reading Aktiv 104 / 94 40% 1 27.11.2028 -
Joel Ezra Enyimba Aktiv 102 / 105 40% 5 25.11.2028 -
Malte Hallin GIF Sundsvall Aktiv 97 / 88 40% 1 25.11.2028 -
Jan Cedilnik Chikhura Aktiv 90 / 96 40% 2 24.11.2028 -
Alejandro Tapia Central Norte Aktiv 74 / 104 40% 3 24.11.2028 -
Noa Mikić Imotski Aktiv 114 / 127 40% 1 24.11.2028 -
Tiago Gordillo San Miguel Aktiv 96 / 102 40% 4 20.11.2028 -
Olivier Leroux Mouscron Aktiv 118 / 113 40% 2 17.11.2028 -
Nejc Brekalo NK Domzale Aktiv 111 / 102 40% 1 17.11.2028 -
Jack Shorrock Port Vale Aktiv 112 / 124 40% 1 17.11.2028 -
Mauro Matorras Central Norte Aktiv 101 / 88 40% 3 15.11.2028 -
Ramiro Villella Inter Aktiv 100 / 109 40% 1 15.11.2028 -
Marko Zebić Lucko Aktiv 113 / 113 40% 1 15.11.2028 -
Sergio Martínez Real Madrid Aktiv 119 / 118 40% 2 14.11.2028 -
Malte Heyde Esbjerg Aktiv 127 / 117 40% 1 14.11.2028 -
Martim Cunha Porto Aktiv 124 / 128 40% 4 13.11.2028 -
Mateo Caballero Defensor Sporting Aktiv 113 / 93 40% 1 13.11.2028 -
Riquelme Thompson-Jones Accrington Stanley Aktiv 113 / 122 40% 2 11.11.2028 -
Andrey Ivlev Nizhniy Novgorod Aktiv 119 / 121 40% 2 08.11.2028 -
Matías Magdaleno Estudiantes Aktiv 107 / 102 40% 1 02.10.2028 -
Yury Oyarzo Racing Aktiv 106 / 104 40% 1 08.09.2028 -
Agustín Medina Lanús Aktiv 109 / 129 40% 1 08.09.2028 -
Christos Kamtsis Aris Thessaloniki Aktiv 91 / 97 40% 1 06.09.2028 -
Aytor Herrera Mineros de Guayana Aktiv 79 / 85 40% 2 04.09.2028 -
Óscar Hinojosa Metropolitanos Aktiv 87 / 95 40% 1 24.08.2028 -
Francisco Arias Gimnasia y Esgrima Aktiv 92 / 94 40% 1 24.08.2028 -
Lautaro Dufur Juventud Aktiv 100 / 108 40% 1 24.08.2028 -
Estanislao López Colón Aktiv 83 / 96 40% 1 23.08.2028 -
Cheveyo Tsawa Club Brugge Aktiv 124 / 121 40% 1 23.08.2028 -
Abubakar Adams Aduana Stars Aktiv 80 / 76 40% 4 31.07.2028 -
Khama Mabunda Platinum Stars Aktiv 76 / 77 40% 3 31.07.2028 -
Hosea Michael Remo Stars Aktiv 101 / 87 40% 2 30.07.2028 -
Federico Matarán Giana Erminio Aktiv 97 / 107 40% 1 30.07.2028 -
Diego Vargas Universidad de Concepcion Aktiv 88 / 91 40% 1 30.07.2028 -
Kwesi Sorotu Badori Berekum Chelsea Aktiv 101 / 116 40% 2 29.07.2028 -
Mehdi Noorafkan Padideh Aktiv 85 / 120 40% 1 29.07.2028 -
Duje Slatina Trapani Aktiv 89 / 94 40% 1 29.07.2028 -
Miguel Figueiredo Benfica Aktiv 113 / 138 40% 1 28.07.2028 -
Seydou Fofana Pacos de Ferreira Aktiv 98 / 123 40% 1 28.07.2028 -
Anderson Acevedo Bogota Aktiv 76 / 84 40% 1 28.07.2028 -
Simone Suppa Virtus Verona Aktiv 98 / 83 40% 1 21.07.2028 -
Jan Bürger Northampton Town Aktiv 119 / 122 40% 2 18.07.2028 -
Lucas Camejo River Plate Aktiv 88 / 89 40% 1 17.07.2028 -
Bence Szakos Aris Aktiv 107 / 94 40% 1 17.07.2028 -
Bernardo Lima Porto Aktiv 103 / 132 40% 5 14.07.2028 -
Alexandr Lubnin Zenit Penza Aktiv 87 / 87 40% 1 14.07.2028 -
Jamal Iddrissou Pergolettese Aktiv 116 / 131 40% 2 12.07.2028 -
Clayton Diandy Al-Diriyah Aktiv 104 / 122 40% 3 12.07.2028 -
Valentino Huertas Morón Aktiv 110 / 95 40% 1 12.07.2028 -
Ahmed Khaled Paralimni Aktiv 101 / 117 40% 4 10.07.2028 -
Lamine Bèye Portimonense Aktiv 111 / 116 40% 2 10.07.2028 -
Fletcher Boyd Accrington Stanley Aktiv 106 / 102 40% 4 09.07.2028 -
Francesco Ferrara Latina Aktiv 92 / 87 40% 2 09.07.2028 -
Ryan Kavuma-McQueen Accrington Stanley Aktiv 133 / 122 40% 4 08.07.2028 -
Edison Gruezo Guadalajara Aktiv 110 / 108 40% 2 08.07.2028 -
Luke Brooke-Smith Chesterfield Aktiv 90 / 120 40% 3 06.07.2028 -
Igor Tyjon Barrow AFC Aktiv 114 / 117 40% 5 06.07.2028 -
Paolo Dorini Estudiantes de Merida Aktiv 82 / 103 40% 1 06.07.2028 -
Juan Cejas Ethnikos Achnas Abgelehnt 111 / 115 65% 2 05.07.2028 Ablehnen
Andrea Luongo Trento Aktiv 112 / 101 40% 3 05.07.2028 -
Marco Tumminello Benevento Aktiv 111 / 125 40% 1 05.07.2028 -
Tyler Fletcher Rotherham United Aktiv 121 / 133 40% 1 05.07.2028 -
Daniel Barrea Godoy Cruz Aktiv 115 / 117 40% 1 03.07.2028 -
Kyle Wootton Stockport County Aktiv 123 / 136 40% 1 03.07.2028 -
Augusto Bando Ascoli Aktiv 111 / 122 40% 1 03.07.2028 -
Emanuele Schimmenti Potenza Aktiv 115 / 109 40% 1 01.07.2028 -
Tobiáš Pališčák Zlin Aktiv 108 / 105 40% 1 01.07.2028 -
Tobías Ramírez River Plate Aktiv 131 / 122 40% 1 01.07.2028 -
Gabriele Gori Ascoli Aktiv 121 / 126 40% 1 29.06.2028 -
Leandro Antunes Al-Riyadh Aktiv 132 / 120 40% 1 26.06.2028 -
Baba N'Diaye Chaika Aktiv 94 / 90 40% 2 07.06.2028 -
Lisandro Piñero Banfield Aktiv 125 / 114 40% 1 07.06.2028 -
Tomás Peixoto Porto Aktiv 99 / 120 40% 3 06.06.2028 -
Leo Pecover Swindon Town Aktiv 105 / 116 40% 3 06.06.2028 -
Paulo Iago Sporting CP Aktiv 99 / 107 40% 2 05.06.2028 -
Francisco Fernandes Porto Aktiv 99 / 98 40% 2 05.06.2028 -
Georgy Makarov Dinamo St Petersburg Aktiv 78 / 97 40% 1 04.06.2028 -
Ryan McAidoo Oldham Athletic Aktiv 115 / 119 40% 6 02.06.2028 -
Reece Oxford Shrewsbury Town Aktiv 112 / 117 40% 1 31.05.2028 -
Hayden Matthews Tranmere Rovers Aktiv 113 / 105 40% 1 31.05.2028 -
Adam Senior Barnet Aktiv 101 / 103 40% 1 31.05.2028 -
João Abreu Porto Aktiv 95 / 112 40% 5 28.05.2028 -
Gabe Forsyth Colchester United Aktiv 102 / 102 40% 3 28.05.2028 -
Matvey Ivanov Zenit Aktiv 77 / 86 40% 3 20.05.2028 -
Kwandile Gumemde US Bougouni Aktiv 76 / 88 40% 2 19.05.2028 -
Eduard Ihnatov Ospitaletto Aktiv 101 / 93 40% 1 18.05.2028 -
İsak Vural Audace Cerignola Aktiv 111 / 113 40% 3 07.05.2028 -
Mads Abrahamsen Zenit Penza Aktiv 99 / 88 40% 2 07.05.2028 -
Jeremías Merlo Gimnasia La Plata Aktiv 122 / 112 40% 1 04.05.2028 -
Gaël Lafont Dolomiti Bellunesi Aktiv 98 / 113 40% 2 30.04.2028 -
Nathan Mbala FC Metz Aktiv 95 / 105 40% 2 21.04.2028 -
Kiani Inge Groningen Aktiv 101 / 113 40% 1 21.04.2028 -
Luca Scarlato Perugia Aktiv 107 / 126 40% 2 13.04.2028 -
Jake Evans Crewe Alexandra Aktiv 102 / 132 40% 3 07.04.2028 -
Vasco Sousa Porto Aktiv 75 / 88 40% 1 07.04.2028 -
Ben Broggio Mansfield Town Aktiv 107 / 118 40% 3 05.04.2028 -
Gabriel Mec Feirense Aktiv 114 / 138 40% 2 02.04.2028 -
Gabriele Bertolini Vicenza Aktiv 94 / 118 40% 1 30.03.2028 -
Lander Astiazarán Real Sociedad Aktiv 109 / 113 40% 1 27.03.2028 -
Mamoutou Berthé US Bougouba Aktiv 115 / 125 40% 1 19.03.2028 -
Dimitris Theodorou Anorthosis Aktiv 100 / 109 65% 1 17.01.2028 Befürworten
Stevan Jovetić Aktiv 120 / 116 65% 1 14.06.2027 Befürworten
Andreas Karamanolis Anorthosis Aktiv 101 / 111 65% 1 10.08.2026 Befürworten
Fernando Forestieri AEL Aktiv 129 / 133 65% 1 03.08.2026 Befürworten